createdAt,value
2022-12-27T00:01:15.136Z,4.61
2022-12-27T00:03:42.343Z,4.62
2022-12-27T00:06:17.083Z,4.61
2022-12-27T00:08:44.383Z,4.58
2022-12-27T00:11:13.156Z,4.59
2022-12-27T00:13:39.754Z,4.52
2022-12-27T00:16:08.889Z,4.48
2022-12-27T00:18:35.997Z,4.48
2022-12-27T00:21:03.708Z,4.47
2022-12-27T00:23:38.093Z,4.43
2022-12-27T00:26:06.993Z,4.40
2022-12-27T00:28:34.639Z,4.35
2022-12-27T00:31:02.994Z,4.35
2022-12-27T00:33:32.138Z,4.35
2022-12-27T00:35:59.537Z,4.33
2022-12-27T00:38:26.503Z,4.32
2022-12-27T00:40:53.282Z,4.21
2022-12-27T00:43:19.670Z,4.21
2022-12-27T00:45:46.198Z,4.21
2022-12-27T00:48:13.046Z,4.17
2022-12-27T00:50:41.017Z,4.15
2022-12-27T00:53:08.091Z,4.11
2022-12-27T00:55:34.923Z,4.08
2022-12-27T00:58:01.449Z,4.05
2022-12-27T01:00:27.853Z,4.04
2022-12-27T01:02:54.490Z,4.06
2022-12-27T01:05:21.926Z,4.07
2022-12-27T01:07:50.537Z,4.05
2022-12-27T01:10:17.031Z,4.07
2022-12-27T01:12:43.568Z,4.09
2022-12-27T01:15:10.512Z,4.08
2022-12-27T01:17:36.973Z,4.09
2022-12-27T01:20:04.355Z,4.11
2022-12-27T01:22:30.760Z,4.11
2022-12-27T01:24:57.245Z,4.11
2022-12-27T01:27:23.767Z,4.09
2022-12-27T01:29:50.397Z,4.13
2022-12-27T01:32:17.908Z,4.17
2022-12-27T01:34:45.555Z,4.21
2022-12-27T01:37:11.945Z,4.23
2022-12-27T01:39:38.379Z,4.25
2022-12-27T01:42:24.668Z,4.29
2022-12-27T01:44:56.596Z,4.33
2022-12-27T01:47:38.740Z,4.33
2022-12-27T01:50:30.161Z,4.35
2022-12-27T01:53:11.671Z,4.31
2022-12-27T01:55:55.294Z,4.32
2022-12-27T01:58:42.794Z,4.28
2022-12-27T02:01:16.472Z,4.25
2022-12-27T02:04:08.323Z,4.28
2022-12-27T02:06:36.154Z,4.24
2022-12-27T02:09:02.498Z,4.23
2022-12-27T02:11:50.359Z,4.22
2022-12-27T02:14:34.971Z,4.22
2022-12-27T02:17:13.729Z,4.19
2022-12-27T02:19:40.105Z,4.19
2022-12-27T02:22:24.941Z,4.21
2022-12-27T02:24:55.609Z,4.23
2022-12-27T02:27:44.252Z,4.24
2022-12-27T02:30:13.166Z,4.26
2022-12-27T02:33:08.969Z,4.26
2022-12-27T02:35:44.818Z,4.28
2022-12-27T02:38:18.657Z,4.28
2022-12-27T02:41:05.989Z,4.24
2022-12-27T02:43:51.617Z,4.19
2022-12-27T02:46:41.656Z,4.21
2022-12-27T02:49:45.870Z,4.20
2022-12-27T02:52:50.597Z,4.19
2022-12-27T02:55:17.001Z,4.17
2022-12-27T02:58:03.499Z,4.17
2022-12-27T03:01:08.374Z,4.19
2022-12-27T03:04:07.084Z,4.15
2022-12-27T03:06:46.638Z,4.12
2022-12-27T03:09:59.752Z,4.13
2022-12-27T03:13:26.780Z,4.10
2022-12-27T03:16:16.993Z,4.07
2022-12-27T03:18:56.077Z,4.07
2022-12-27T03:21:51.772Z,4.04
2022-12-27T03:24:39.172Z,4.00
2022-12-27T03:27:17.912Z,3.98
2022-12-27T03:30:11.435Z,3.94
2022-12-27T03:33:03.412Z,3.93
2022-12-27T03:35:33.419Z,3.91
2022-12-27T03:38:04.960Z,3.91
2022-12-27T03:41:02.870Z,3.89
2022-12-27T03:43:29.779Z,3.89
2022-12-27T03:46:28.417Z,3.84
2022-12-27T03:49:07.012Z,3.83
2022-12-27T03:51:58.202Z,3.84
2022-12-27T03:54:27.826Z,3.86
2022-12-27T03:56:56.555Z,3.86
2022-12-27T03:59:23.171Z,3.84
2022-12-27T04:01:49.795Z,3.82
2022-12-27T04:04:17.401Z,3.80
2022-12-27T04:06:43.884Z,3.79
2022-12-27T04:09:29.965Z,3.76
2022-12-27T04:12:15.846Z,3.74
2022-12-27T04:15:00.924Z,3.76
2022-12-27T04:17:46.649Z,3.76
2022-12-27T04:20:32.288Z,3.74
2022-12-27T04:23:17.331Z,3.71
2022-12-27T04:26:02.586Z,3.69
2022-12-27T04:28:47.785Z,3.70
2022-12-27T04:31:34.389Z,3.70
2022-12-27T04:34:19.336Z,3.71
2022-12-27T04:36:46.412Z,3.71
2022-12-27T04:39:13.244Z,3.72
2022-12-27T04:41:58.482Z,3.73
2022-12-27T04:44:43.906Z,3.76
2022-12-27T04:47:38.151Z,3.75
2022-12-27T04:50:29.989Z,3.77
2022-12-27T04:53:14.915Z,3.78
2022-12-27T04:55:41.423Z,3.77
2022-12-27T04:58:07.885Z,3.77
2022-12-27T05:00:52.939Z,3.76
2022-12-27T05:03:21.746Z,3.76
2022-12-27T05:05:49.235Z,3.78
2022-12-27T05:08:34.557Z,3.79
2022-12-27T05:11:19.808Z,3.78
2022-12-27T05:14:01.409Z,3.78
2022-12-27T05:16:29.721Z,3.78
2022-12-27T05:18:56.283Z,3.81
2022-12-27T05:21:22.834Z,3.83
2022-12-27T05:24:07.978Z,3.85
2022-12-27T05:26:35.349Z,3.88
2022-12-27T05:29:02.126Z,3.90
2022-12-27T05:31:29.457Z,3.87
2022-12-27T05:33:56.491Z,3.89
2022-12-27T05:36:23.578Z,3.91
2022-12-27T05:38:50.659Z,3.90
2022-12-27T05:41:17.764Z,3.90
2022-12-27T05:43:44.604Z,3.89
2022-12-27T05:46:16.347Z,3.89
2022-12-27T05:48:45.700Z,3.90
2022-12-27T05:51:15.299Z,3.87
2022-12-27T05:53:43.142Z,3.90
2022-12-27T05:56:13.868Z,3.89
2022-12-27T05:58:40.413Z,3.89
2022-12-27T06:01:09.668Z,3.90
2022-12-27T06:03:36.308Z,3.88
2022-12-27T06:06:04.274Z,3.86
2022-12-27T06:08:31.125Z,3.83
2022-12-27T06:11:03.838Z,3.80
2022-12-27T06:13:30.542Z,3.80
2022-12-27T06:16:00.198Z,3.81
2022-12-27T06:18:27.921Z,3.81
2022-12-27T06:20:54.330Z,3.83
2022-12-27T06:23:20.787Z,3.81
2022-12-27T06:25:47.216Z,3.81
2022-12-27T06:28:13.617Z,3.82
2022-12-27T06:30:40.075Z,3.81
2022-12-27T06:33:06.551Z,3.77
2022-12-27T06:35:33.041Z,3.77
2022-12-27T06:37:59.515Z,3.74
2022-12-27T06:40:25.927Z,3.74
2022-12-27T06:42:52.391Z,3.75
2022-12-27T06:45:18.865Z,3.74
2022-12-27T06:47:45.282Z,3.73
2022-12-27T06:50:11.772Z,3.71
2022-12-27T06:52:38.222Z,3.71
2022-12-27T06:55:05.457Z,3.71
2022-12-27T06:57:31.918Z,3.70
2022-12-27T06:59:58.544Z,3.69
2022-12-27T07:02:25.097Z,3.66
2022-12-27T07:04:52.402Z,3.66
2022-12-27T07:07:21.128Z,3.66
2022-12-27T07:09:47.538Z,3.64
2022-12-27T07:12:13.990Z,3.64
2022-12-27T07:14:40.516Z,3.66
2022-12-27T07:17:08.336Z,3.65
2022-12-27T07:22:15.645Z,3.65
2022-12-27T07:24:42.071Z,3.66
2022-12-27T07:27:08.491Z,3.68
2022-12-27T07:29:40.245Z,3.69
2022-12-27T07:32:44.063Z,3.75
2022-12-27T07:35:10.604Z,3.80
2022-12-27T07:37:41.121Z,3.78
2022-12-27T07:40:08.185Z,3.83
2022-12-27T07:42:34.692Z,3.81
2022-12-27T07:45:01.136Z,3.78
2022-12-27T07:47:28.151Z,3.75
2022-12-27T07:49:54.620Z,3.70
2022-12-27T07:52:21.124Z,3.68
2022-12-27T07:54:47.531Z,3.67
2022-12-27T07:57:14.989Z,3.66
2022-12-27T07:59:41.715Z,3.64
2022-12-27T08:02:09.626Z,3.65
2022-12-27T08:04:37.242Z,3.63
2022-12-27T08:07:12.391Z,3.61
2022-12-27T08:09:40.712Z,3.64
2022-12-27T08:12:08.243Z,3.64
2022-12-27T08:14:34.917Z,3.66
2022-12-27T08:17:15.245Z,3.63
2022-12-27T08:19:41.760Z,3.64
2022-12-27T08:22:09.785Z,3.67
2022-12-27T08:24:36.312Z,3.67
2022-12-27T08:27:02.887Z,3.64
2022-12-27T08:29:29.329Z,3.66
2022-12-27T08:31:55.954Z,3.66
2022-12-27T08:34:22.413Z,3.66
2022-12-27T08:36:55.852Z,3.68
2022-12-27T08:39:22.517Z,3.68
2022-12-27T08:41:48.941Z,3.72
2022-12-27T08:44:15.410Z,3.69
2022-12-27T08:46:41.870Z,3.69
2022-12-27T08:49:08.370Z,3.73
2022-12-27T08:51:40.741Z,3.76
2022-12-27T08:54:07.862Z,3.76
2022-12-27T08:56:34.301Z,3.78
2022-12-27T08:59:00.813Z,3.80
2022-12-27T09:01:27.521Z,3.82
2022-12-27T09:03:54.106Z,3.83
2022-12-27T09:11:24.061Z,3.87
2022-12-27T09:13:50.564Z,3.90
2022-12-27T09:16:20.114Z,3.96
2022-12-27T09:18:50.200Z,4.02
2022-12-27T09:21:19.418Z,4.07
2022-12-27T09:23:46.419Z,4.08
2022-12-27T09:26:15.757Z,4.08
2022-12-27T09:28:42.693Z,4.10
2022-12-27T09:31:10.857Z,4.17
2022-12-27T09:33:38.058Z,4.24
2022-12-27T09:36:10.136Z,4.32
2022-12-27T09:38:37.393Z,4.33
2022-12-27T09:41:07.071Z,4.33
2022-12-27T09:43:42.454Z,4.37
2022-12-27T09:46:16.552Z,4.33
2022-12-27T09:48:43.068Z,4.28
2022-12-27T09:51:14.306Z,4.30
2022-12-27T09:53:47.568Z,4.27
2022-12-27T09:56:21.272Z,4.27
2022-12-27T09:58:52.558Z,4.32
2022-12-27T10:01:27.414Z,4.34
2022-12-27T10:03:54.496Z,4.46
2022-12-27T10:06:48.871Z,4.51
2022-12-27T10:09:49.720Z,4.54
2022-12-27T10:12:43.610Z,4.53
2022-12-27T10:15:33.484Z,4.56
2022-12-27T10:18:17.861Z,4.59
2022-12-27T10:21:20.660Z,4.67
2022-12-27T10:23:56.366Z,4.78
2022-12-27T10:26:23.184Z,4.82
2022-12-27T10:29:16.180Z,4.85
2022-12-27T10:31:43.209Z,4.92
2022-12-27T10:34:14.855Z,4.95
2022-12-27T10:36:42.212Z,4.94
2022-12-27T10:39:27.146Z,4.87
2022-12-27T10:42:11.770Z,4.89
2022-12-27T10:44:38.619Z,4.85
2022-12-27T10:47:05.408Z,4.85
2022-12-27T10:49:33.279Z,4.81
2022-12-27T10:52:18.251Z,4.76
2022-12-27T10:54:55.831Z,4.71
2022-12-27T10:57:26.157Z,4.72
2022-12-27T11:00:18.815Z,4.78
2022-12-27T11:02:56.057Z,4.85
2022-12-27T11:05:26.558Z,4.99
2022-12-27T11:07:53.249Z,5.07
2022-12-27T11:10:22.671Z,5.11
2022-12-27T11:13:06.509Z,5.07
2022-12-27T11:15:40.995Z,5.10
2022-12-27T11:18:12.647Z,5.18
2022-12-27T11:20:43.582Z,5.24
2022-12-27T11:23:17.155Z,5.31
2022-12-27T11:25:58.655Z,5.29
2022-12-27T11:28:34.748Z,5.34
2022-12-27T11:31:04.207Z,5.41
2022-12-27T11:33:47.634Z,5.54
2022-12-27T11:36:15.829Z,5.55
2022-12-27T11:38:45.349Z,5.56
2022-12-27T11:41:20.819Z,5.59
2022-12-27T11:43:57.421Z,5.63
2022-12-27T11:46:30.555Z,5.69
2022-12-27T11:48:58.671Z,5.71
2022-12-27T11:51:49.683Z,5.74
2022-12-27T11:54:36.003Z,5.69
2022-12-27T11:57:19.206Z,5.64
2022-12-27T11:59:54.263Z,5.60
2022-12-27T12:02:27.592Z,5.58
2022-12-27T12:05:29.694Z,5.64
2022-12-27T12:08:21.154Z,5.70
2022-12-27T12:11:07.762Z,5.68
2022-12-27T12:14:09.275Z,5.68
2022-12-27T12:16:49.048Z,5.70
2022-12-27T12:19:33.447Z,5.70
2022-12-27T12:22:21.973Z,5.67
2022-12-27T12:25:15.967Z,5.68
2022-12-27T12:28:30.399Z,5.73
2022-12-27T12:31:23.873Z,5.82
2022-12-27T12:34:13.685Z,5.86
2022-12-27T12:36:52.831Z,5.94
2022-12-27T12:39:38.185Z,5.99
2022-12-27T12:42:19.789Z,5.89
2022-12-27T12:45:17.319Z,5.90
2022-12-27T12:48:20.644Z,5.91
2022-12-27T12:51:08.909Z,5.89
2022-12-27T12:53:38.242Z,5.86
2022-12-27T12:56:32.499Z,5.82
2022-12-27T12:59:24.926Z,5.81
2022-12-27T13:02:03.554Z,5.79
2022-12-27T13:05:04.333Z,5.81
2022-12-27T13:07:49.715Z,5.85
2022-12-27T13:10:44.069Z,5.96
2022-12-27T13:13:22.162Z,6.06
2022-12-27T13:16:16.035Z,6.09
2022-12-27T13:18:56.854Z,6.11
2022-12-27T13:21:35.705Z,6.07
2022-12-27T13:24:07.539Z,6.02
2022-12-27T13:27:06.594Z,5.96
2022-12-27T13:29:46.834Z,6.04
2022-12-27T13:32:29.687Z,6.02
2022-12-27T13:35:03.599Z,5.99
2022-12-27T13:37:45.300Z,6.01
2022-12-27T13:40:36.326Z,6.00
2022-12-27T13:43:21.179Z,6.04
2022-12-27T13:46:12.888Z,6.14
2022-12-27T13:49:00.226Z,6.17
2022-12-27T13:51:52.152Z,6.18
2022-12-27T13:54:53.723Z,6.20
2022-12-27T13:57:35.569Z,6.17
2022-12-27T14:00:21.004Z,6.18
2022-12-27T14:03:07.251Z,6.18
2022-12-27T14:05:55.525Z,6.22
2022-12-27T14:08:33.248Z,6.27
2022-12-27T14:11:01.247Z,6.33
2022-12-27T14:13:40.819Z,6.39
2022-12-27T14:16:16.517Z,6.47
2022-12-27T14:19:04.587Z,6.46
2022-12-27T14:21:54.755Z,6.45
2022-12-27T14:24:30.221Z,6.50
2022-12-27T14:27:33.690Z,6.47
2022-12-27T14:30:12.133Z,6.41
2022-12-27T14:32:49.975Z,6.38
2022-12-27T14:35:50.670Z,6.37
2022-12-27T14:38:39.605Z,6.35
2022-12-27T14:41:37.913Z,6.39
2022-12-27T14:44:42.046Z,6.36
2022-12-27T14:47:36.781Z,6.33
2022-12-27T14:51:00.982Z,6.26
2022-12-27T14:53:33.005Z,6.17
2022-12-27T14:56:27.344Z,6.12
2022-12-27T14:59:14.395Z,6.08
2022-12-27T15:02:05.666Z,6.12
2022-12-27T15:04:52.708Z,6.09
2022-12-27T15:07:22.606Z,6.13
2022-12-27T15:10:04.683Z,6.19
2022-12-27T15:12:56.796Z,6.21
2022-12-27T15:15:43.640Z,6.21
2022-12-27T15:18:31.003Z,6.19
2022-12-27T15:21:08.069Z,6.10
2022-12-27T15:23:54.423Z,6.03
2022-12-27T15:26:34.424Z,5.96
2022-12-27T15:29:28.101Z,6.00
2022-12-27T15:31:58.219Z,5.97
2022-12-27T15:34:55.460Z,5.96
2022-12-27T15:37:47.759Z,5.93
2022-12-27T15:40:38.916Z,5.87
2022-12-27T15:43:19.516Z,5.82
2022-12-27T15:46:04.729Z,5.79
2022-12-27T15:49:03.112Z,5.77
2022-12-27T15:51:36.148Z,5.73
2022-12-27T15:54:24.352Z,5.74
2022-12-27T15:57:12.606Z,5.74
2022-12-27T15:59:52.762Z,5.77
2022-12-27T16:02:25.534Z,5.80
2022-12-27T16:04:53.866Z,5.82
2022-12-27T16:07:38.659Z,5.87
2022-12-27T16:10:29.938Z,5.96
2022-12-27T16:13:11.434Z,6.01
2022-12-27T16:15:44.647Z,6.06
2022-12-27T16:18:17.659Z,6.08
2022-12-27T16:20:58.752Z,6.11
2022-12-27T16:23:34.919Z,6.10
2022-12-27T16:26:08.451Z,6.07
2022-12-27T16:28:36.720Z,6.03
2022-12-27T16:31:07.650Z,6.00
2022-12-27T16:33:37.452Z,6.05
2022-12-27T16:36:15.374Z,6.05
2022-12-27T16:39:23.691Z,6.02
2022-12-27T16:41:50.104Z,6.03
2022-12-27T16:44:25.360Z,5.99
2022-12-27T16:47:12.954Z,5.96
2022-12-27T16:49:55.615Z,5.91
2022-12-27T16:52:53.153Z,5.93
2022-12-27T16:55:50.154Z,6.00
2022-12-27T16:58:28.839Z,6.02
2022-12-27T17:00:57.326Z,6.03
2022-12-27T17:03:30.428Z,6.06
2022-12-27T17:06:30.575Z,6.09
2022-12-27T17:08:45.980Z,6.18
2022-12-27T17:11:27.750Z,6.22
2022-12-27T17:14:04.198Z,6.28
2022-12-27T17:16:42.138Z,6.30
2022-12-27T17:19:18.441Z,6.29
2022-12-27T17:21:45.876Z,6.30
2022-12-27T17:24:20.320Z,6.25
2022-12-27T17:27:17.400Z,6.27
2022-12-27T17:30:13.514Z,6.29
2022-12-27T17:33:08.767Z,6.33
2022-12-27T17:36:46.001Z,6.36
2022-12-27T17:39:22.579Z,6.35
2022-12-27T17:42:12.197Z,6.35
2022-12-27T17:44:55.616Z,6.35
2022-12-27T17:47:39.975Z,6.37
2022-12-27T17:50:15.744Z,6.41
2022-12-27T17:53:20.963Z,6.43
2022-12-27T17:56:27.055Z,6.46
2022-12-27T17:59:01.668Z,6.43
2022-12-27T18:01:32.641Z,6.44
2022-12-27T18:03:59.376Z,6.40
2022-12-27T18:06:25.992Z,6.40
2022-12-27T18:08:52.636Z,6.36
2022-12-27T18:11:22.230Z,6.38
2022-12-27T18:13:55.348Z,6.39
2022-12-27T18:16:33.936Z,6.32
2022-12-27T18:19:01.830Z,6.31
2022-12-27T18:21:29.413Z,6.29
2022-12-27T18:23:56.568Z,6.29
2022-12-27T18:26:39.722Z,6.28
2022-12-27T18:29:10.663Z,6.28
2022-12-27T18:31:50.300Z,6.23
2022-12-27T18:34:29.201Z,6.13
2022-12-27T18:37:00.121Z,6.04
2022-12-27T18:39:32.710Z,6.00
2022-12-27T18:42:23.834Z,5.95
2022-12-27T18:44:53.152Z,5.88
2022-12-27T18:47:20.905Z,5.83
2022-12-27T18:49:52.353Z,5.79
2022-12-27T18:52:24.188Z,5.74
2022-12-27T18:54:51.888Z,5.73
2022-12-27T18:57:35.923Z,5.66
2022-12-27T19:00:14.333Z,5.61
2022-12-27T19:02:42.129Z,5.58
2022-12-27T19:05:29.446Z,5.52
2022-12-27T19:08:00.832Z,5.46
2022-12-27T19:10:29.600Z,5.43
2022-12-27T19:12:56.649Z,5.41
2022-12-27T19:15:41.055Z,5.34
2022-12-27T19:18:19.994Z,5.26
2022-12-27T19:20:58.607Z,5.24
2022-12-27T19:23:31.346Z,5.22
2022-12-27T19:26:04.742Z,5.18
2022-12-27T19:28:32.111Z,5.19
2022-12-27T19:31:09.449Z,5.17
2022-12-27T19:33:36.181Z,5.15
2022-12-27T19:36:07.064Z,5.12
2022-12-27T19:38:34.398Z,5.09
2022-12-27T19:41:03.895Z,5.14
2022-12-27T19:43:35.239Z,5.14
2022-12-27T19:46:01.705Z,5.13
2022-12-27T19:48:28.095Z,5.11
2022-12-27T19:50:54.942Z,5.08
2022-12-27T19:53:30.161Z,5.05
2022-12-27T19:55:57.996Z,5.05
2022-12-27T19:58:26.851Z,5.00
2022-12-27T20:00:53.729Z,4.94
2022-12-27T20:03:20.461Z,4.93
2022-12-27T20:06:13.027Z,4.88
2022-12-27T20:08:40.417Z,4.88
2022-12-27T20:11:09.815Z,4.85
2022-12-27T20:13:36.228Z,4.85
2022-12-27T20:16:02.689Z,4.86
2022-12-27T20:18:29.140Z,4.85
2022-12-27T20:20:55.632Z,4.87
2022-12-27T20:23:22.216Z,4.85
2022-12-27T20:25:49.647Z,4.88
2022-12-27T20:28:17.429Z,4.82
2022-12-27T20:30:45.139Z,4.77
2022-12-27T20:33:11.652Z,4.76
2022-12-27T20:35:38.255Z,4.72
2022-12-27T20:38:04.713Z,4.67
2022-12-27T20:40:31.556Z,4.67
2022-12-27T20:42:58.262Z,4.66
2022-12-27T20:45:24.671Z,4.65
2022-12-27T20:47:51.196Z,4.66
2022-12-27T20:50:17.810Z,4.64
2022-12-27T20:52:44.474Z,4.65
2022-12-27T20:55:12.208Z,4.67
2022-12-27T20:57:39.336Z,4.68
2022-12-27T21:00:10.510Z,4.69
2022-12-27T21:02:39.296Z,4.67
2022-12-27T21:05:07.032Z,4.68
2022-12-27T21:07:33.600Z,4.71
2022-12-27T21:10:00.062Z,4.72
2022-12-27T21:12:26.533Z,4.75
2022-12-27T21:14:52.918Z,4.76
2022-12-27T21:17:19.308Z,4.74
2022-12-27T21:19:45.711Z,4.72
2022-12-27T21:22:12.097Z,4.69
2022-12-27T21:24:38.639Z,4.69
2022-12-27T21:27:05.140Z,4.70
2022-12-27T21:29:31.676Z,4.71
2022-12-27T21:31:58.171Z,4.76
2022-12-27T21:34:24.782Z,4.83
2022-12-27T21:36:54.228Z,4.89
2022-12-27T21:39:21.549Z,4.92
2022-12-27T21:41:48.281Z,4.92
2022-12-27T21:44:14.796Z,4.92
2022-12-27T21:46:42.175Z,4.90
2022-12-27T21:49:13.298Z,4.89
2022-12-27T21:51:41.088Z,4.89
2022-12-27T21:54:08.112Z,4.89
2022-12-27T21:56:34.601Z,4.88
2022-12-27T21:59:02.918Z,4.88
2022-12-27T22:01:30.723Z,4.87
2022-12-27T22:04:17.022Z,4.87
2022-12-27T22:06:47.136Z,4.90
2022-12-27T22:09:14.159Z,4.94
2022-12-27T22:11:40.630Z,4.99
2022-12-27T22:14:07.206Z,4.97
2022-12-27T22:16:35.877Z,4.96
2022-12-27T22:19:02.794Z,4.93
2022-12-27T22:21:31.581Z,4.92
2022-12-27T22:23:59.894Z,4.88
2022-12-27T22:26:29.183Z,4.87
2022-12-27T22:28:55.889Z,4.88
2022-12-27T22:31:25.948Z,4.87
2022-12-27T22:33:52.422Z,4.87
2022-12-27T22:36:27.693Z,4.83
2022-12-27T22:38:55.295Z,4.87
2022-12-27T22:41:26.339Z,4.87
2022-12-27T22:43:55.183Z,4.87
2022-12-27T22:46:22.033Z,4.91
2022-12-27T22:48:50.450Z,4.93
2022-12-27T22:51:25.166Z,4.95
2022-12-27T22:53:51.852Z,4.99
2022-12-27T22:56:26.588Z,5.01
2022-12-27T22:58:53.125Z,5.01
2022-12-27T23:01:24.876Z,4.99
2022-12-27T23:03:51.502Z,4.97
2022-12-27T23:15:28.108Z,5.00
2022-12-27T23:17:58.203Z,4.97
2022-12-27T23:20:24.976Z,4.95
2022-12-27T23:22:51.764Z,4.96
